Umit G — TCVF — position and weather

sailwx.info

Track history (hours):
 
Tides and Currents Weather Stations Pressure Air Temp Water Temp Dewpoint Dewpoint Depression Visibility Wind Speed Wind Dir Waves Ship Positions

Umit G

Last reported at 2018-Feb-15 00:31 UTC. Time now 2018-Feb-24 21:57 UTC.
Position N 40°52' E 029°11'.
Warning: this ship's position is 9 days out of date.

Length 95 m; draft 5.4 m.

Type: Ship. MMSI: 271000359.

Date/timePositionNaut miles runAvg speedWind from/ knotsBaromVisibWave heightAir tempDewpointWater temp
2018-Feb-15 00:31N 40°52' E 029°11'0 0.0
2018-Feb-14 09:13N 40°53' E 029°11'0 0.0
2018-Feb-14 08:49N 40°53' E 029°11'0 0.0
2018-Feb-14 08:31N 40°53' E 029°11'0 0.0
2018-Feb-14 08:01N 40°53' E 029°11'0 0.0
2018-Feb-14 07:31N 40°53' E 029°11'0 0.0
2018-Feb-14 07:01N 40°53' E 029°11'0 0.0
2018-Feb-14 06:31N 40°53' E 029°11'0 0.0
2018-Feb-14 05:55N 40°53' E 029°11'0 0.0
2018-Feb-14 05:25N 40°53' E 029°11'0 0.0
2018-Feb-14 04:55N 40°53' E 029°11'0 0.0
2018-Feb-14 04:31N 40°52' E 029°11'0 0.0
2018-Feb-14 04:01N 40°52' E 029°11'0 0.0
2018-Feb-14 03:25N 40°52' E 029°11'0 0.0
2018-Feb-14 03:01N 40°53' E 029°11'0 0.0
2018-Feb-14 02:13N 40°52' E 029°11'0 0.1
2018-Feb-14 01:55N 40°52' E 029°11'0 0.0
2018-Feb-14 01:31N 40°52' E 029°11'0 0.0
2018-Feb-14 00:55N 40°52' E 029°11'0 0.0
2018-Feb-14 00:25N 40°52' E 029°11'0 0.0
2018-Feb-14 00:01N 40°52' E 029°11'0 0.0
2018-Feb-13 23:19N 40°52' E 029°11'0 0.0
2018-Feb-13 22:55N 40°52' E 029°11'0 0.0
2018-Feb-13 22:13N 40°52' E 029°11'0 0.0
2018-Feb-13 20:31N 40°52' E 029°11'0 0.0
2018-Feb-13 20:13N 40°52' E 029°11'0 0.0
2018-Feb-13 18:07N 40°52' E 029°11'0 0.1
2018-Feb-13 17:55N 40°52' E 029°11'0 0.0
2018-Feb-13 14:27N 40°52' E 029°11'1 1.3
2018-Feb-13 14:00N 40°52' E 029°11'181 7.4
2018-Feb-12 13:36N 43°52' E 028°52'1 9.2
2018-Feb-12 13:30N 43°53' E 028°53'4 9.0
2018-Feb-12 13:01N 43°57' E 028°54'5 9.1
2018-Feb-12 12:30N 44°02' E 028°55'4 9.0
2018-Feb-12 12:01N 44°06' E 028°56'5 9.1
2018-Feb-12 11:30N 44°11' E 028°57'5 9.0
2018-Feb-12 11:00N 44°15' E 028°58'5 9.2
2018-Feb-12 10:30N 44°20' E 028°59'5 9.1
2018-Feb-12 10:00N 44°24' E 029°00'5 9.0
2018-Feb-12 09:30N 44°29' E 029°02'140 3.0
2018-Feb-10 10:21N 46°26' E 030°50'3 8.6
2018-Feb-10 10:00N 46°29' E 030°48'4 7.1
2018-Feb-10 09:31N 46°30' E 030°44'0 0.3
2018-Feb-10 09:00N 46°30' E 030°44'0 0.0
2018-Feb-10 08:16N 46°30' E 030°44'0 0.0
2018-Feb-10 05:09N 46°30' E 030°44'0 0.0
2018-Feb-10 04:42N 46°30' E 030°44'0 0.0
2018-Feb-10 04:30N 46°30' E 030°44'0 0.0
2018-Feb-10 04:00N 46°30' E 030°44'0 0.0
2018-Feb-10 03:31N 46°30' E 030°44'0 0.0
2018-Feb-10 02:58N 46°30' E 030°44'0 0.0
2018-Feb-10 02:29N 46°30' E 030°44'0 0.0
2018-Feb-10 02:01N 46°30' E 030°44'0 0.0
2018-Feb-10 01:30N 46°30' E 030°44'0 0.0
2018-Feb-10 00:58N 46°30' E 030°44'0 0.0
2018-Feb-10 00:29N 46°30' E 030°44'0 0.0
2018-Feb-10 00:00N 46°30' E 030°44'0 0.0
2018-Feb-09 23:30N 46°30' E 030°44'0 0.0
2018-Feb-09 23:00N 46°30' E 030°44'0 0.0
2018-Feb-09 22:44N 46°30' E 030°44'0 0.1
2018-Feb-09 22:30N 46°30' E 030°44'0 0.0
2018-Feb-09 22:01N 46°30' E 030°44'0 0.0
2018-Feb-09 20:31N 46°30' E 030°44'0 0.0
2018-Feb-09 19:00N 46°30' E 030°44'0 0.0
2018-Feb-09 09:31N 46°30' E 030°44'0 0.0
2018-Feb-08 01:25N 46°30' E 030°44'0 0.0
2018-Feb-08 00:59N 46°30' E 030°44'0 0.0
2018-Feb-07 23:51N 46°30' E 030°44'0 0.0
2018-Feb-07 23:29N 46°30' E 030°44'0 0.0
2018-Feb-07 23:00N 46°30' E 030°44'0 0.0
2018-Feb-07 22:30N 46°30' E 030°44'0 0.0
2018-Feb-07 22:00N 46°30' E 030°44'0 0.0
2018-Feb-07 03:32N 46°30' E 030°44'0 0.0
2018-Feb-07 03:25N 46°30' E 030°44'0 0.0
2018-Feb-06 08:33N 46°30' E 030°44'0 0.0
2018-Feb-06 06:25N 46°30' E 030°44'0 0.0
2018-Feb-06 01:01N 46°30' E 030°44'0 0.0
2018-Feb-05 23:48N 46°30' E 030°44'0 0.0
2018-Feb-05 19:31N 46°30' E 030°44'0 0.7
2018-Feb-05 19:30N 46°30' E 030°44'7 0.6
2018-Feb-05 08:55N 46°29' E 030°53'0 0.0
2018-Feb-05 08:25N 46°29' E 030°53'0 0.0
2018-Feb-05 07:58N 46°29' E 030°53'0 0.0
2018-Feb-05 07:19N 46°29' E 030°53'0 0.0
2018-Feb-05 06:46N 46°29' E 030°53'0 0.0
2018-Feb-05 06:28N 46°29' E 030°53'0 0.0
2018-Feb-05 04:16N 46°29' E 030°53'0 0.1
2018-Feb-05 03:58N 46°29' E 030°53'  
Track history (hours):
 
Tides and Currents Weather Stations Pressure Air Temp Water Temp Dewpoint Dewpoint Depression Visibility Wind Speed Wind Dir Waves Ship Positions

Umit G

Last reported at 2018-Feb-15 00:31 UTC. Time now 2018-Feb-24 21:57 UTC.
Position N 40°52' E 029°11'.
Warning: this ship's position is 9 days out of date.

Length 95 m; draft 5.4 m.

Type: Ship. MMSI: 271000359.

Date/timePositionNaut miles runAvg speedWind from/ knotsBaromVisibWave heightAir tempDewpointWater temp
2018-Feb-15 00:31N 40°52' E 029°11'0 0.0
2018-Feb-14 09:13N 40°53' E 029°11'0 0.0
2018-Feb-14 08:49N 40°53' E 029°11'0 0.0
2018-Feb-14 08:31N 40°53' E 029°11'0 0.0
2018-Feb-14 08:01N 40°53' E 029°11'0 0.0
2018-Feb-14 07:31N 40°53' E 029°11'0 0.0
2018-Feb-14 07:01N 40°53' E 029°11'0 0.0
2018-Feb-14 06:31N 40°53' E 029°11'0 0.0
2018-Feb-14 05:55N 40°53' E 029°11'0 0.0
2018-Feb-14 05:25N 40°53' E 029°11'0 0.0
2018-Feb-14 04:55N 40°53' E 029°11'0 0.0
2018-Feb-14 04:31N 40°52' E 029°11'0 0.0
2018-Feb-14 04:01N 40°52' E 029°11'0 0.0
2018-Feb-14 03:25N 40°52' E 029°11'0 0.0
2018-Feb-14 03:01N 40°53' E 029°11'0 0.0
2018-Feb-14 02:13N 40°52' E 029°11'0 0.1
2018-Feb-14 01:55N 40°52' E 029°11'0 0.0
2018-Feb-14 01:31N 40°52' E 029°11'0 0.0
2018-Feb-14 00:55N 40°52' E 029°11'0 0.0
2018-Feb-14 00:25N 40°52' E 029°11'0 0.0
2018-Feb-14 00:01N 40°52' E 029°11'0 0.0
2018-Feb-13 23:19N 40°52' E 029°11'0 0.0
2018-Feb-13 22:55N 40°52' E 029°11'0 0.0
2018-Feb-13 22:13N 40°52' E 029°11'0 0.0
2018-Feb-13 20:31N 40°52' E 029°11'0 0.0
2018-Feb-13 20:13N 40°52' E 029°11'0 0.0
2018-Feb-13 18:07N 40°52' E 029°11'0 0.1
2018-Feb-13 17:55N 40°52' E 029°11'0 0.0
2018-Feb-13 14:27N 40°52' E 029°11'1 1.3
2018-Feb-13 14:00N 40°52' E 029°11'181 7.4
2018-Feb-12 13:36N 43°52' E 028°52'1 9.2
2018-Feb-12 13:30N 43°53' E 028°53'4 9.0
2018-Feb-12 13:01N 43°57' E 028°54'5 9.1
2018-Feb-12 12:30N 44°02' E 028°55'4 9.0
2018-Feb-12 12:01N 44°06' E 028°56'5 9.1
2018-Feb-12 11:30N 44°11' E 028°57'5 9.0
2018-Feb-12 11:00N 44°15' E 028°58'5 9.2
2018-Feb-12 10:30N 44°20' E 028°59'5 9.1
2018-Feb-12 10:00N 44°24' E 029°00'5 9.0
2018-Feb-12 09:30N 44°29' E 029°02'140 3.0
2018-Feb-10 10:21N 46°26' E 030°50'3 8.6
2018-Feb-10 10:00N 46°29' E 030°48'4 7.1
2018-Feb-10 09:31N 46°30' E 030°44'0 0.3
2018-Feb-10 09:00N 46°30' E 030°44'0 0.0
2018-Feb-10 08:16N 46°30' E 030°44'0 0.0
2018-Feb-10 05:09N 46°30' E 030°44'0 0.0
2018-Feb-10 04:42N 46°30' E 030°44'0 0.0
2018-Feb-10 04:30N 46°30' E 030°44'0 0.0
2018-Feb-10 04:00N 46°30' E 030°44'0 0.0
2018-Feb-10 03:31N 46°30' E 030°44'0 0.0
2018-Feb-10 02:58N 46°30' E 030°44'0 0.0
2018-Feb-10 02:29N 46°30' E 030°44'0 0.0
2018-Feb-10 02:01N 46°30' E 030°44'0 0.0
2018-Feb-10 01:30N 46°30' E 030°44'0 0.0
2018-Feb-10 00:58N 46°30' E 030°44'0 0.0
2018-Feb-10 00:29N 46°30' E 030°44'0 0.0
2018-Feb-10 00:00N 46°30' E 030°44'0 0.0
2018-Feb-09 23:30N 46°30' E 030°44'0 0.0
2018-Feb-09 23:00N 46°30' E 030°44'0 0.0
2018-Feb-09 22:44N 46°30' E 030°44'0 0.1
2018-Feb-09 22:30N 46°30' E 030°44'0 0.0
2018-Feb-09 22:01N 46°30' E 030°44'0 0.0
2018-Feb-09 20:31N 46°30' E 030°44'0 0.0
2018-Feb-09 19:00N 46°30' E 030°44'0 0.0
2018-Feb-09 09:31N 46°30' E 030°44'0 0.0
2018-Feb-08 01:25N 46°30' E 030°44'0 0.0
2018-Feb-08 00:59N 46°30' E 030°44'0 0.0
2018-Feb-07 23:51N 46°30' E 030°44'0 0.0
2018-Feb-07 23:29N 46°30' E 030°44'0 0.0
2018-Feb-07 23:00N 46°30' E 030°44'0 0.0
2018-Feb-07 22:30N 46°30' E 030°44'0 0.0
2018-Feb-07 22:00N 46°30' E 030°44'0 0.0
2018-Feb-07 03:32N 46°30' E 030°44'0 0.0
2018-Feb-07 03:25N 46°30' E 030°44'0 0.0
2018-Feb-06 08:33N 46°30' E 030°44'0 0.0
2018-Feb-06 06:25N 46°30' E 030°44'0 0.0
2018-Feb-06 01:01N 46°30' E 030°44'0 0.0
2018-Feb-05 23:48N 46°30' E 030°44'0 0.0
2018-Feb-05 19:31N 46°30' E 030°44'0 0.7
2018-Feb-05 19:30N 46°30' E 030°44'7 0.6
2018-Feb-05 08:55N 46°29' E 030°53'0 0.0
2018-Feb-05 08:25N 46°29' E 030°53'0 0.0
2018-Feb-05 07:58N 46°29' E 030°53'0 0.0
2018-Feb-05 07:19N 46°29' E 030°53'0 0.0
2018-Feb-05 06:46N 46°29' E 030°53'0 0.0
2018-Feb-05 06:28N 46°29' E 030°53'0 0.0
2018-Feb-05 04:16N 46°29' E 030°53'0 0.1
2018-Feb-05 03:58N 46°29' E 030°53'  

Dump ship's entire track history